Relevés horaires Stabio (Suisse)


Relevés horaires à Stabio - Jeudi 17 Oct. 2002
Heure UTC1 Température [°C] Vent [km/h] Hum. [%] Pres.4 [hPa] Visi. [Km] Nébu. [octa] Préc.5 [mm] Cond.
2m. Res. Ros. Dir.2 Vit. Moy. Raf.3
23:00 12.2 12.2 9.4 NNO 0.0 -- -- 83 1001.6 -- -- -- --
22:00 13.4 13.4 10.3 ENE 1.9 -- -- 81 1001.1 -- -- -- --
21:00 13.8 13.6 9.6 E 7.4 -- -- 76 1000.4 -- -- -- --
20:00 14.8 14.8 12.8 NNO 0.0 -- -- 88 999.4 -- -- -- --
19:00 15.4 15.4 13.2 SSO 3.7 -- -- 87 998.9 -- -- -- --
18:00 17.4 17.4 14.8 S 3.7 -- -- 85 998.1(-1.0/3h) -- -- 9/12h
--
17:00 17.3 17.3 15.6 NNO 0.0 -- -- 90 998.6 -- -- -- --
16:00 17.4 17.4 15.7 NNO 0.0 -- -- 90 999.1 -- -- -- --
15:00 17.2 17.2 15.4 NE 1.9 -- -- 89 999.1 -- -- -- --
14:00 16.6 16.6 14.9 SO 1.9 -- -- 90 999.8 -- -- -- --
13:00 17.5 17.5 13.4 ENE 7.4 -- -- 77 1000.7 -- -- -- --
12:00 17.3 17.2 13.5 ENE 11.1 -- -- 78 1001.9(-1.7/3h) -- -- -- --
11:00 17.0 17.0 13.4 ENE 3.7 -- -- 79 1002.4 -- -- -- --
10:00 16.6 16.6 13.1 E 7.4 -- -- 80 1002.9 -- -- -- --
09:00 16.1 16.1 13.4 ENE 7.4 -- -- 84 1003.9(-1.1/3h) -- -- -- --
08:00 15.7 15.7 13.5 ENE 5.6 -- -- 87 1004.4 -- -- -- --
07:00 15.7 15.7 13.4 SO 3.7 -- -- 86 1004.8 -- -- -- --
06:00 15.9 15.9 13.2 E 3.7 -- -- 84 1005.1(-1.8/3h) -- -- 2/12h
--
05:00 16.3 16.3 12.7 E 3.7 -- -- 79 1005.8 -- -- -- --
04:00 15.6 15.6 13.3 ESE 3.7 -- -- 86 1006.4 -- -- -- --
03:00 16.6 16.6 12.5 E 7.4 -- -- 77 1006.8 -- -- -- --
02:00 15.6 15.6 13.4 SE 1.9 -- -- 87 1007.8 -- -- -- --
01:00 16.1 16.1 13.4 ESE 1.9 -- -- 84 1008.2 -- -- -- --
00:00 16.3 16.3 13.1 E 3.7 -- -- 81 1008.7(-1.8/3h) -- -- -- --

1 Coordinated Universal Time. Actuellement il est 23:00 locale et 21:00 UTC.

2 Le vent souffle depuis la direction indiquée vers la direction oposée.

3 Les rafales max. sont disponible 40 min après l'heure du relevé.

4 Pour les stations d'altitude (plus de 600m) le géopotentiel du niveau le plus proche de la pression obligatoire est indiqué.

5 Les stations disposant d'un diffuseur peuvent indiquer "trace". Cela signifie que des précipitations ont touchés le sol mais que la quantité est inférieure à 0.1 mm.

Copyright

Les données affichées sur cette page sont la propriété exclusive de Météo Suisse.

Récapitulatif de la journée
Température [°C] Vent [km/h] Ensoleillement4 [h] Precipitations totale5 [mm] Pression [Hpa]
Min1 Max.2 Moy.3 Max. Min Max.
15.3 17.7 0 -- 0 h 0 min 9.1 998.1 1008.7

1 Température minimale relevée entre 18:00 UTC la veille et 18:00 UTC le jour donné.

2 Température maximale relevée entre 06:00 UTC le jour donné et 06:00 UTC le lendemain.

3 Vent moyen de la journée basé sur les relevés horaires.

4 Ensoleillement en heures relevé entre 06:00 UTC la veille et 06:00 UTC le jour donné.

5 Précipitations totales tombées entre 06:00 UTC la jour donné et 06:00 UTC le lendemain.

Graphiques horaires